Pagina principală
METAR-TAF:

METAR-TAF

Aeroporturi :

Barbacena, Minas Gerais, Brazilia

Latitudine: 21-15S, longitudine: 043-46W, elevație: 1171 m

Observații meteo curente

Raportul a fost făcut în urmă cu 3 ore și 39 de minute, la 20:00 UTC
Vânt 5 kt de la Est
Temperatură 21°C
Umiditate 46%
Presiune 1028 hPa
Vizibilitate de 10 km sau mai mult
nu există nori sub 1.500 m și nici cumulonimbus

METAR: SBBQ 232000Z 09005KT CAVOK 21/09 Q1028

Ora: 20:39 (23:39 UTC)


TAF: lipsă

Observații și prognoze meteo pentru peste 4.000 de aeroporturi (rapoarte METAR și TAF).

Stațiile disponibile sunt reprezentate pe hartă prin puncte galbene și roșii.

Țineți indicatorul mouse-ului pe punctul dorit pentru a vedea denumirea stației.

Apoi, faceți clic pentru a vedea observațiile și prognozele meteorologice.

Pentru a schimba harta: Pentru mărire, faceți clic pe butoanele verzi cu cruce neagră; pentru micșorare, pe butonul verde cu o liniuță; pentru hărți învecinate, pe săgețile verzi.


METAR-TAF: